sensor_id;sensor_type;location;lat;lon;timestamp;temperature;humidity
59975;DHT22;62136;-35.664;-63.766;2023-09-19T00:00:38;24.50;26.30
59975;DHT22;62136;-35.664;-63.766;2023-09-19T00:03:06;24.60;26.30
59975;DHT22;62136;-35.664;-63.766;2023-09-19T00:05:37;24.50;26.30
59975;DHT22;62136;-35.664;-63.766;2023-09-19T00:08:05;24.40;26.60
59975;DHT22;62136;-35.664;-63.766;2023-09-19T00:10:33;24.20;27.40
59975;DHT22;62136;-35.664;-63.766;2023-09-19T00:13:03;24.00;27.40
59975;DHT22;62136;-35.664;-63.766;2023-09-19T00:15:44;23.80;27.10
59975;DHT22;62136;-35.664;-63.766;2023-09-19T00:18:15;23.60;27.70
59975;DHT22;62136;-35.664;-63.766;2023-09-19T00:20:45;23.50;27.20
59975;DHT22;62136;-35.664;-63.766;2023-09-19T00:23:14;23.30;27.60
59975;DHT22;62136;-35.664;-63.766;2023-09-19T00:25:41;23.30;27.70
59975;DHT22;62136;-35.664;-63.766;2023-09-19T00:28:08;23.10;27.50
59975;DHT22;62136;-35.664;-63.766;2023-09-19T00:30:36;23.00;27.60
59975;DHT22;62136;-35.664;-63.766;2023-09-19T00:33:05;23.00;27.90
59975;DHT22;62136;-35.664;-63.766;2023-09-19T00:35:34;23.30;27.70
59975;DHT22;62136;-35.664;-63.766;2023-09-19T00:38:01;23.70;27.40
59975;DHT22;62136;-35.664;-63.766;2023-09-19T00:40:29;24.10;27.10
59975;DHT22;62136;-35.664;-63.766;2023-09-19T00:42:59;24.30;26.90
59975;DHT22;62136;-35.664;-63.766;2023-09-19T00:45:27;24.30;27.00
59975;DHT22;62136;-35.664;-63.766;2023-09-19T00:47:55;24.20;27.00
59975;DHT22;62136;-35.664;-63.766;2023-09-19T00:50:25;24.00;27.10
59975;DHT22;62136;-35.664;-63.766;2023-09-19T00:52:56;23.90;27.30
59975;DHT22;62136;-35.664;-63.766;2023-09-19T00:55:24;23.70;27.50
59975;DHT22;62136;-35.664;-63.766;2023-09-19T00:57:52;23.50;29.20
59975;DHT22;62136;-35.664;-63.766;2023-09-19T01:00:20;23.30;28.80
59975;DHT22;62136;-35.664;-63.766;2023-09-19T01:02:48;23.20;28.90
59975;DHT22;62136;-35.664;-63.766;2023-09-19T01:05:15;23.10;28.60
59975;DHT22;62136;-35.664;-63.766;2023-09-19T01:07:42;23.00;28.70
59975;DHT22;62136;-35.664;-63.766;2023-09-19T01:10:17;22.90;28.70
59975;DHT22;62136;-35.664;-63.766;2023-09-19T01:32:05;24.00;27.60
59975;DHT22;62136;-35.664;-63.766;2023-09-19T01:34:52;23.90;27.60
59975;DHT22;62136;-35.664;-63.766;2023-09-19T01:37:21;23.70;27.60
59975;DHT22;62136;-35.664;-63.766;2023-09-19T01:40:10;23.50;27.50
59975;DHT22;62136;-35.664;-63.766;2023-09-19T01:48:49;23.00;27.80
59975;DHT22;62136;-35.664;-63.766;2023-09-19T01:51:41;23.00;27.80
59975;DHT22;62136;-35.664;-63.766;2023-09-19T01:54:18;23.20;27.60
59975;DHT22;62136;-35.664;-63.766;2023-09-19T02:00:11;24.00;27.00
59975;DHT22;62136;-35.664;-63.766;2023-09-19T02:02:45;24.20;26.80
59975;DHT22;62136;-35.664;-63.766;2023-09-19T02:05:21;24.10;26.90
59975;DHT22;62136;-35.664;-63.766;2023-09-19T02:07:51;24.10;26.90
59975;DHT22;62136;-35.664;-63.766;2023-09-19T02:10:19;23.90;27.20
59975;DHT22;62136;-35.664;-63.766;2023-09-19T02:12:50;23.70;27.00
59975;DHT22;62136;-35.664;-63.766;2023-09-19T02:15:18;23.60;27.30
59975;DHT22;62136;-35.664;-63.766;2023-09-19T02:17:45;23.40;27.20
59975;DHT22;62136;-35.664;-63.766;2023-09-19T02:20:13;23.30;27.30
59975;DHT22;62136;-35.664;-63.766;2023-09-19T02:22:43;23.10;27.30
59975;DHT22;62136;-35.664;-63.766;2023-09-19T02:25:10;23.00;27.50
59975;DHT22;62136;-35.664;-63.766;2023-09-19T02:27:37;22.90;27.50
59975;DHT22;62136;-35.664;-63.766;2023-09-19T02:30:06;22.90;27.60
59975;DHT22;62136;-35.664;-63.766;2023-09-19T02:32:33;23.20;27.30
59975;DHT22;62136;-35.664;-63.766;2023-09-19T02:35:05;23.60;27.20
59975;DHT22;62136;-35.664;-63.766;2023-09-19T02:37:33;23.90;26.90
59975;DHT22;62136;-35.664;-63.766;2023-09-19T02:40:01;24.10;26.60
59975;DHT22;62136;-35.664;-63.766;2023-09-19T02:42:28;24.10;26.70
59975;DHT22;62136;-35.664;-63.766;2023-09-19T02:44:56;24.00;26.70
59975;DHT22;62136;-35.664;-63.766;2023-09-19T02:47:23;23.90;27.00
59975;DHT22;62136;-35.664;-63.766;2023-09-19T02:49:50;23.70;26.80
59975;DHT22;62136;-35.664;-63.766;2023-09-19T02:52:17;23.60;27.20
59975;DHT22;62136;-35.664;-63.766;2023-09-19T02:54:45;23.40;26.90
59975;DHT22;62136;-35.664;-63.766;2023-09-19T02:57:13;23.30;27.20
59975;DHT22;62136;-35.664;-63.766;2023-09-19T02:59:41;23.10;27.40
59975;DHT22;62136;-35.664;-63.766;2023-09-19T03:02:09;22.90;27.20
59975;DHT22;62136;-35.664;-63.766;2023-09-19T03:04:39;22.80;27.40
59975;DHT22;62136;-35.664;-63.766;2023-09-19T03:07:06;22.80;27.30
59975;DHT22;62136;-35.664;-63.766;2023-09-19T03:09:33;23.10;27.30
59975;DHT22;62136;-35.664;-63.766;2023-09-19T03:12:00;23.40;27.00
59975;DHT22;62136;-35.664;-63.766;2023-09-19T03:14:27;23.80;26.80
59975;DHT22;62136;-35.664;-63.766;2023-09-19T03:16:56;24.00;26.60
59975;DHT22;62136;-35.664;-63.766;2023-09-19T03:19:23;24.00;26.50
59975;DHT22;62136;-35.664;-63.766;2023-09-19T03:21:55;23.90;26.60
59975;DHT22;62136;-35.664;-63.766;2023-09-19T03:24:24;23.80;26.80
59975;DHT22;62136;-35.664;-63.766;2023-09-19T03:26:51;23.70;26.90
59975;DHT22;62136;-35.664;-63.766;2023-09-19T03:29:18;23.50;26.80
59975;DHT22;62136;-35.664;-63.766;2023-09-19T03:31:45;23.30;26.90
59975;DHT22;62136;-35.664;-63.766;2023-09-19T03:34:12;23.10;27.00
59975;DHT22;62136;-35.664;-63.766;2023-09-19T03:36:40;23.00;27.30
59975;DHT22;62136;-35.664;-63.766;2023-09-19T03:39:07;22.80;27.50
59975;DHT22;62136;-35.664;-63.766;2023-09-19T03:41:34;22.70;27.40
59975;DHT22;62136;-35.664;-63.766;2023-09-19T03:44:03;22.80;27.40
59975;DHT22;62136;-35.664;-63.766;2023-09-19T03:46:30;23.00;27.30
59975;DHT22;62136;-35.664;-63.766;2023-09-19T03:48:58;23.40;27.10
59975;DHT22;62136;-35.664;-63.766;2023-09-19T03:51:28;23.80;26.80
59975;DHT22;62136;-35.664;-63.766;2023-09-19T03:53:55;23.90;26.70
59975;DHT22;62136;-35.664;-63.766;2023-09-19T03:56:22;23.90;26.60
59975;DHT22;62136;-35.664;-63.766;2023-09-19T03:58:49;23.80;26.60
59975;DHT22;62136;-35.664;-63.766;2023-09-19T04:01:17;23.70;26.70
59975;DHT22;62136;-35.664;-63.766;2023-09-19T04:03:44;23.50;26.50
59975;DHT22;62136;-35.664;-63.766;2023-09-19T04:06:14;23.30;27.00
59975;DHT22;62136;-35.664;-63.766;2023-09-19T04:08:43;23.20;27.30
59975;DHT22;62136;-35.664;-63.766;2023-09-19T04:11:14;23.00;27.40
59975;DHT22;62136;-35.664;-63.766;2023-09-19T04:13:41;22.80;27.30
59975;DHT22;62136;-35.664;-63.766;2023-09-19T04:16:08;22.70;27.40
59975;DHT22;62136;-35.664;-63.766;2023-09-19T04:18:35;22.50;27.50
59975;DHT22;62136;-35.664;-63.766;2023-09-19T04:21:04;22.70;27.60
59975;DHT22;62136;-35.664;-63.766;2023-09-19T04:23:32;22.90;27.50
59975;DHT22;62136;-35.664;-63.766;2023-09-19T04:25:59;23.30;27.20
59975;DHT22;62136;-35.664;-63.766;2023-09-19T04:28:26;23.70;27.00
59975;DHT22;62136;-35.664;-63.766;2023-09-19T04:30:57;23.70;26.70
59975;DHT22;62136;-35.664;-63.766;2023-09-19T04:33:25;23.70;26.80
59975;DHT22;62136;-35.664;-63.766;2023-09-19T04:35:53;23.60;26.80
59975;DHT22;62136;-35.664;-63.766;2023-09-19T04:38:21;23.50;27.20
59975;DHT22;62136;-35.664;-63.766;2023-09-19T04:40:49;23.30;27.40
59975;DHT22;62136;-35.664;-63.766;2023-09-19T04:43:16;23.10;27.40
59975;DHT22;62136;-35.664;-63.766;2023-09-19T04:45:43;23.00;27.60
59975;DHT22;62136;-35.664;-63.766;2023-09-19T04:48:11;22.80;27.40
59975;DHT22;62136;-35.664;-63.766;2023-09-19T04:50:41;22.60;27.80
59975;DHT22;62136;-35.664;-63.766;2023-09-19T04:53:09;22.50;27.70
59975;DHT22;62136;-35.664;-63.766;2023-09-19T04:55:36;22.40;27.90
59975;DHT22;62136;-35.664;-63.766;2023-09-19T04:58:03;22.50;27.90
59975;DHT22;62136;-35.664;-63.766;2023-09-19T05:00:30;22.80;27.70
59975;DHT22;62136;-35.664;-63.766;2023-09-19T05:03:01;23.20;27.50
59975;DHT22;62136;-35.664;-63.766;2023-09-19T05:05:30;23.60;27.20
59975;DHT22;62136;-35.664;-63.766;2023-09-19T05:07:57;23.60;27.10
59975;DHT22;62136;-35.664;-63.766;2023-09-19T05:10:25;23.60;27.10
59975;DHT22;62136;-35.664;-63.766;2023-09-19T05:12:55;23.50;27.20
59975;DHT22;62136;-35.664;-63.766;2023-09-19T05:15:23;23.40;27.30
59975;DHT22;62136;-35.664;-63.766;2023-09-19T05:17:53;23.10;27.40
59975;DHT22;62136;-35.664;-63.766;2023-09-19T05:20:22;23.00;27.60
59975;DHT22;62136;-35.664;-63.766;2023-09-19T05:23:03;22.80;27.70
59975;DHT22;62136;-35.664;-63.766;2023-09-19T05:25:39;22.60;27.90
59975;DHT22;62136;-35.664;-63.766;2023-09-19T05:28:07;22.40;27.90
59975;DHT22;62136;-35.664;-63.766;2023-09-19T05:30:35;22.30;28.30
59975;DHT22;62136;-35.664;-63.766;2023-09-19T05:33:04;22.40;28.30
59975;DHT22;62136;-35.664;-63.766;2023-09-19T05:35:31;22.60;28.10
59975;DHT22;62136;-35.664;-63.766;2023-09-19T05:37:59;23.00;27.90
59975;DHT22;62136;-35.664;-63.766;2023-09-19T05:40:26;23.40;27.60
59975;DHT22;62136;-35.664;-63.766;2023-09-19T05:42:53;23.60;27.40
59975;DHT22;62136;-35.664;-63.766;2023-09-19T05:45:20;23.60;27.40
59975;DHT22;62136;-35.664;-63.766;2023-09-19T05:47:51;23.50;27.40
59975;DHT22;62136;-35.664;-63.766;2023-09-19T05:50:22;23.30;27.50
59975;DHT22;62136;-35.664;-63.766;2023-09-19T05:52:55;23.10;27.80
59975;DHT22;62136;-35.664;-63.766;2023-09-19T05:55:25;23.00;27.80
59975;DHT22;62136;-35.664;-63.766;2023-09-19T05:57:52;22.70;27.90
59975;DHT22;62136;-35.664;-63.766;2023-09-19T06:00:21;22.60;28.10
59975;DHT22;62136;-35.664;-63.766;2023-09-19T06:02:52;22.40;28.20
59975;DHT22;62136;-35.664;-63.766;2023-09-19T06:05:21;22.20;28.50
59975;DHT22;62136;-35.664;-63.766;2023-09-19T06:07:48;22.20;28.60
59975;DHT22;62136;-35.664;-63.766;2023-09-19T06:10:16;22.30;28.50
59975;DHT22;62136;-35.664;-63.766;2023-09-19T06:12:44;22.70;28.30
59975;DHT22;62136;-35.664;-63.766;2023-09-19T06:15:12;23.10;28.00
59975;DHT22;62136;-35.664;-63.766;2023-09-19T06:17:49;23.50;27.70
59975;DHT22;62136;-35.664;-63.766;2023-09-19T06:20:17;23.50;27.80
59975;DHT22;62136;-35.664;-63.766;2023-09-19T06:22:45;23.40;27.60
59975;DHT22;62136;-35.664;-63.766;2023-09-19T06:25:15;23.30;27.70
59975;DHT22;62136;-35.664;-63.766;2023-09-19T06:27:46;23.10;27.90
59975;DHT22;62136;-35.664;-63.766;2023-09-19T06:30:14;22.90;28.00
59975;DHT22;62136;-35.664;-63.766;2023-09-19T06:32:41;22.70;28.20
59975;DHT22;62136;-35.664;-63.766;2023-09-19T06:35:13;22.50;28.30
59975;DHT22;62136;-35.664;-63.766;2023-09-19T06:37:42;22.30;28.50
59975;DHT22;62136;-35.664;-63.766;2023-09-19T06:40:13;22.10;28.60
59975;DHT22;62136;-35.664;-63.766;2023-09-19T06:42:41;22.00;29.20
59975;DHT22;62136;-35.664;-63.766;2023-09-19T06:45:10;22.20;28.90
59975;DHT22;62136;-35.664;-63.766;2023-09-19T06:47:40;22.40;28.70
59975;DHT22;62136;-35.664;-63.766;2023-09-19T06:50:07;22.80;28.50
59975;DHT22;62136;-35.664;-63.766;2023-09-19T06:52:35;23.20;28.10
59975;DHT22;62136;-35.664;-63.766;2023-09-19T06:55:14;23.30;28.10
59975;DHT22;62136;-35.664;-63.766;2023-09-19T06:57:43;23.30;28.00
59975;DHT22;62136;-35.664;-63.766;2023-09-19T07:00:11;23.20;28.10
59975;DHT22;62136;-35.664;-63.766;2023-09-19T07:02:44;23.00;28.10
59975;DHT22;62136;-35.664;-63.766;2023-09-19T07:05:11;22.80;28.30
59975;DHT22;62136;-35.664;-63.766;2023-09-19T07:07:38;22.60;28.50
59975;DHT22;62136;-35.664;-63.766;2023-09-19T07:10:06;22.40;28.50
59975;DHT22;62136;-35.664;-63.766;2023-09-19T07:12:36;22.30;28.80
59975;DHT22;62136;-35.664;-63.766;2023-09-19T07:15:04;22.00;28.90
59975;DHT22;62136;-35.664;-63.766;2023-09-19T07:17:32;21.90;29.10
59975;DHT22;62136;-35.664;-63.766;2023-09-19T07:19:59;22.10;29.20
59975;DHT22;62136;-35.664;-63.766;2023-09-19T07:22:29;22.40;28.90
59975;DHT22;62136;-35.664;-63.766;2023-09-19T07:24:56;22.80;28.70
59975;DHT22;62136;-35.664;-63.766;2023-09-19T07:27:23;23.10;28.40
59975;DHT22;62136;-35.664;-63.766;2023-09-19T07:29:51;23.30;28.20
59975;DHT22;62136;-35.664;-63.766;2023-09-19T07:32:18;23.30;28.10
59975;DHT22;62136;-35.664;-63.766;2023-09-19T07:34:45;23.20;28.20
59975;DHT22;62136;-35.664;-63.766;2023-09-19T07:37:12;23.10;28.30
59975;DHT22;62136;-35.664;-63.766;2023-09-19T07:39:41;22.90;28.50
59975;DHT22;62136;-35.664;-63.766;2023-09-19T07:42:08;22.70;28.60
59975;DHT22;62136;-35.664;-63.766;2023-09-19T07:44:38;22.50;28.70
59975;DHT22;62136;-35.664;-63.766;2023-09-19T07:47:05;22.30;28.90
59975;DHT22;62136;-35.664;-63.766;2023-09-19T07:49:32;22.10;29.00
59975;DHT22;62136;-35.664;-63.766;2023-09-19T07:52:02;21.90;29.20
59975;DHT22;62136;-35.664;-63.766;2023-09-19T07:54:29;21.90;29.40
59975;DHT22;62136;-35.664;-63.766;2023-09-19T07:57:02;22.10;29.30
59975;DHT22;62136;-35.664;-63.766;2023-09-19T07:59:29;22.40;29.10
59975;DHT22;62136;-35.664;-63.766;2023-09-19T08:01:56;22.80;28.80
59975;DHT22;62136;-35.664;-63.766;2023-09-19T08:04:24;23.20;28.60
59975;DHT22;62136;-35.664;-63.766;2023-09-19T08:06:52;23.20;28.40
59975;DHT22;62136;-35.664;-63.766;2023-09-19T08:09:19;23.20;28.40
59975;DHT22;62136;-35.664;-63.766;2023-09-19T08:11:47;23.10;28.50
59975;DHT22;62136;-35.664;-63.766;2023-09-19T08:14:14;22.90;28.70
59975;DHT22;62136;-35.664;-63.766;2023-09-19T08:16:41;22.70;28.80
59975;DHT22;62136;-35.664;-63.766;2023-09-19T08:19:11;22.50;28.90
59975;DHT22;62136;-35.664;-63.766;2023-09-19T08:21:38;22.30;29.10
59975;DHT22;62136;-35.664;-63.766;2023-09-19T08:24:05;22.10;29.30
59975;DHT22;62136;-35.664;-63.766;2023-09-19T08:26:32;21.90;29.40
59975;DHT22;62136;-35.664;-63.766;2023-09-19T08:28:59;21.80;29.60
59975;DHT22;62136;-35.664;-63.766;2023-09-19T08:31:31;22.00;29.60
59975;DHT22;62136;-35.664;-63.766;2023-09-19T08:34:00;22.20;29.40
59975;DHT22;62136;-35.664;-63.766;2023-09-19T08:36:26;22.60;29.10
59975;DHT22;62136;-35.664;-63.766;2023-09-19T08:38:54;23.00;28.80
59975;DHT22;62136;-35.664;-63.766;2023-09-19T08:41:20;23.10;28.70
59975;DHT22;62136;-35.664;-63.766;2023-09-19T08:43:48;23.10;28.70
59975;DHT22;62136;-35.664;-63.766;2023-09-19T08:46:19;23.00;28.70
59975;DHT22;62136;-35.664;-63.766;2023-09-19T08:51:27;22.60;29.00
59975;DHT22;62136;-35.664;-63.766;2023-09-19T08:54:06;22.40;29.20
59975;DHT22;62136;-35.664;-63.766;2023-09-19T08:56:34;22.20;29.40
59975;DHT22;62136;-35.664;-63.766;2023-09-19T08:59:06;22.00;29.50
59975;DHT22;62136;-35.664;-63.766;2023-09-19T09:01:38;21.80;29.80
59975;DHT22;62136;-35.664;-63.766;2023-09-19T09:04:09;21.80;29.90
59975;DHT22;62136;-35.664;-63.766;2023-09-19T09:06:39;21.90;29.80
59975;DHT22;62136;-35.664;-63.766;2023-09-19T09:09:07;22.30;29.60
59975;DHT22;62136;-35.664;-63.766;2023-09-19T09:11:36;22.70;29.40
59975;DHT22;62136;-35.664;-63.766;2023-09-19T09:14:06;23.10;29.00
59975;DHT22;62136;-35.664;-63.766;2023-09-19T09:16:34;23.20;28.80
59975;DHT22;62136;-35.664;-63.766;2023-09-19T09:19:02;23.10;29.00
59975;DHT22;62136;-35.664;-63.766;2023-09-19T09:21:29;23.00;28.90
59975;DHT22;62136;-35.664;-63.766;2023-09-19T09:24:27;22.80;29.00
59975;DHT22;62136;-35.664;-63.766;2023-09-19T09:27:00;22.60;29.20
59975;DHT22;62136;-35.664;-63.766;2023-09-19T09:29:43;22.40;29.40
59975;DHT22;62136;-35.664;-63.766;2023-09-19T09:32:29;22.10;29.60
59975;DHT22;62136;-35.664;-63.766;2023-09-19T09:35:01;21.90;29.80
59975;DHT22;62136;-35.664;-63.766;2023-09-19T09:37:29;21.70;30.00
59975;DHT22;62136;-35.664;-63.766;2023-09-19T09:40:02;21.80;30.00
59975;DHT22;62136;-35.664;-63.766;2023-09-19T09:42:55;22.00;29.80
59975;DHT22;62136;-35.664;-63.766;2023-09-19T09:45:25;22.50;29.60
59975;DHT22;62136;-35.664;-63.766;2023-09-19T09:48:04;22.80;29.30
59975;DHT22;62136;-35.664;-63.766;2023-09-19T09:50:47;23.00;29.00
59975;DHT22;62136;-35.664;-63.766;2023-09-19T09:53:25;23.00;29.10
59975;DHT22;62136;-35.664;-63.766;2023-09-19T09:56:07;22.90;29.20
59975;DHT22;62136;-35.664;-63.766;2023-09-19T09:58:49;22.70;29.30
59975;DHT22;62136;-35.664;-63.766;2023-09-19T10:03:52;22.20;29.60
59975;DHT22;62136;-35.664;-63.766;2023-09-19T10:06:24;22.00;29.80
59975;DHT22;62136;-35.664;-63.766;2023-09-19T10:11:34;21.70;30.20
59975;DHT22;62136;-35.664;-63.766;2023-09-19T10:14:04;21.80;30.30
59975;DHT22;62136;-35.664;-63.766;2023-09-19T10:16:33;22.00;30.10
59975;DHT22;62136;-35.664;-63.766;2023-09-19T10:19:02;22.40;30.00
59975;DHT22;62136;-35.664;-63.766;2023-09-19T10:21:33;22.90;29.70
59975;DHT22;62136;-35.664;-63.766;2023-09-19T10:24:04;23.10;29.40
59975;DHT22;62136;-35.664;-63.766;2023-09-19T10:26:36;23.10;29.40
59975;DHT22;62136;-35.664;-63.766;2023-09-19T10:29:06;23.00;29.50
59975;DHT22;62136;-35.664;-63.766;2023-09-19T10:31:34;22.80;29.70
59975;DHT22;62136;-35.664;-63.766;2023-09-19T10:34:03;22.60;29.80
59975;DHT22;62136;-35.664;-63.766;2023-09-19T10:36:33;22.40;29.90
59975;DHT22;62136;-35.664;-63.766;2023-09-19T10:39:03;22.20;30.00
59975;DHT22;62136;-35.664;-63.766;2023-09-19T10:41:35;22.00;30.20
59975;DHT22;62136;-35.664;-63.766;2023-09-19T10:44:05;21.80;30.50
59975;DHT22;62136;-35.664;-63.766;2023-09-19T10:46:32;21.60;30.90
59975;DHT22;62136;-35.664;-63.766;2023-09-19T10:49:00;21.70;31.40
59975;DHT22;62136;-35.664;-63.766;2023-09-19T10:51:39;21.90;31.30
59975;DHT22;62136;-35.664;-63.766;2023-09-19T10:54:12;22.30;31.00
59975;DHT22;62136;-35.664;-63.766;2023-09-19T10:56:50;22.70;30.70
59975;DHT22;62136;-35.664;-63.766;2023-09-19T10:59:21;23.00;30.40
59975;DHT22;62136;-35.664;-63.766;2023-09-19T11:04:24;22.90;30.40
59975;DHT22;62136;-35.664;-63.766;2023-09-19T11:07:08;22.70;30.60
59975;DHT22;62136;-35.664;-63.766;2023-09-19T11:15:07;22.10;32.70
59975;DHT22;62136;-35.664;-63.766;2023-09-19T11:17:38;21.90;34.10
59975;DHT22;62136;-35.664;-63.766;2023-09-19T11:30:46;22.60;34.20
59975;DHT22;62136;-35.664;-63.766;2023-09-19T11:33:21;22.90;33.30
59975;DHT22;62136;-35.664;-63.766;2023-09-19T11:43:52;22.70;36.10
59975;DHT22;62136;-35.664;-63.766;2023-09-19T11:46:25;22.60;36.90
59975;DHT22;62136;-35.664;-63.766;2023-09-19T11:48:54;22.50;37.90
59975;DHT22;62136;-35.664;-63.766;2023-09-19T11:51:26;22.30;38.70
59975;DHT22;62136;-35.664;-63.766;2023-09-19T11:53:57;22.10;39.10
59975;DHT22;62136;-35.664;-63.766;2023-09-19T11:56:28;22.10;40.20
59975;DHT22;62136;-35.664;-63.766;2023-09-19T11:59:04;22.00;41.00
59975;DHT22;62136;-35.664;-63.766;2023-09-19T12:01:34;21.90;42.00
59975;DHT22;62136;-35.664;-63.766;2023-09-19T12:04:02;21.80;42.70
59975;DHT22;62136;-35.664;-63.766;2023-09-19T12:06:31;21.70;42.70
59975;DHT22;62136;-35.664;-63.766;2023-09-19T12:09:04;21.80;40.50
59975;DHT22;62136;-35.664;-63.766;2023-09-19T12:11:42;22.10;39.90
59975;DHT22;62136;-35.664;-63.766;2023-09-19T12:14:26;22.60;39.10
59975;DHT22;62136;-35.664;-63.766;2023-09-19T12:16:57;22.90;38.70
59975;DHT22;62136;-35.664;-63.766;2023-09-19T12:19:26;23.00;38.60
59975;DHT22;62136;-35.664;-63.766;2023-09-19T12:22:02;22.90;40.80
59975;DHT22;62136;-35.664;-63.766;2023-09-19T12:24:33;22.80;41.60
59975;DHT22;62136;-35.664;-63.766;2023-09-19T12:27:05;22.70;42.50
59975;DHT22;62136;-35.664;-63.766;2023-09-19T12:29:46;22.60;43.90
59975;DHT22;62136;-35.664;-63.766;2023-09-19T12:32:15;22.50;45.00
59975;DHT22;62136;-35.664;-63.766;2023-09-19T12:34:53;22.50;46.40
59975;DHT22;62136;-35.664;-63.766;2023-09-19T12:37:21;22.40;48.70
59975;DHT22;62136;-35.664;-63.766;2023-09-19T12:39:51;22.30;49.70
59975;DHT22;62136;-35.664;-63.766;2023-09-19T12:42:24;22.20;51.60
59975;DHT22;62136;-35.664;-63.766;2023-09-19T12:44:54;22.20;53.00
59975;DHT22;62136;-35.664;-63.766;2023-09-19T12:47:24;22.20;53.50
59975;DHT22;62136;-35.664;-63.766;2023-09-19T12:50:13;22.20;54.20
59975;DHT22;62136;-35.664;-63.766;2023-09-19T12:52:46;22.20;55.40
59975;DHT22;62136;-35.664;-63.766;2023-09-19T12:55:28;22.20;56.30
59975;DHT22;62136;-35.664;-63.766;2023-09-19T13:00:41;22.20;58.80
59975;DHT22;62136;-35.664;-63.766;2023-09-19T13:03:18;22.20;59.90
59975;DHT22;62136;-35.664;-63.766;2023-09-19T13:05:50;22.20;61.30
59975;DHT22;62136;-35.664;-63.766;2023-09-19T13:08:32;22.20;60.80
59975;DHT22;62136;-35.664;-63.766;2023-09-19T13:13:47;22.30;62.80
59975;DHT22;62136;-35.664;-63.766;2023-09-19T13:16:17;22.30;62.50
59975;DHT22;62136;-35.664;-63.766;2023-09-19T13:18:51;22.30;62.40
59975;DHT22;62136;-35.664;-63.766;2023-09-19T13:21:35;22.30;63.00
59975;DHT22;62136;-35.664;-63.766;2023-09-19T13:24:33;22.40;62.30
59975;DHT22;62136;-35.664;-63.766;2023-09-19T13:27:04;22.30;62.20
59975;DHT22;62136;-35.664;-63.766;2023-09-19T13:29:33;22.30;62.20
59975;DHT22;62136;-35.664;-63.766;2023-09-19T13:32:01;22.30;61.80
59975;DHT22;62136;-35.664;-63.766;2023-09-19T13:34:30;22.30;61.00
59975;DHT22;62136;-35.664;-63.766;2023-09-19T13:36:58;22.30;60.80
59975;DHT22;62136;-35.664;-63.766;2023-09-19T13:39:25;22.30;59.80
59975;DHT22;62136;-35.664;-63.766;2023-09-19T13:41:53;22.20;59.50
59975;DHT22;62136;-35.664;-63.766;2023-09-19T13:44:21;22.20;59.90
59975;DHT22;62136;-35.664;-63.766;2023-09-19T13:46:48;22.10;59.70
59975;DHT22;62136;-35.664;-63.766;2023-09-19T13:49:15;22.20;59.80
59975;DHT22;62136;-35.664;-63.766;2023-09-19T13:51:44;22.10;59.80
59975;DHT22;62136;-35.664;-63.766;2023-09-19T13:54:11;22.00;59.20
59975;DHT22;62136;-35.664;-63.766;2023-09-19T13:56:41;22.00;59.30
59975;DHT22;62136;-35.664;-63.766;2023-09-19T13:59:11;22.00;58.80
59975;DHT22;62136;-35.664;-63.766;2023-09-19T14:01:46;21.90;58.70
59975;DHT22;62136;-35.664;-63.766;2023-09-19T14:04:13;21.80;59.10
59975;DHT22;62136;-35.664;-63.766;2023-09-19T14:06:44;21.70;58.00
59975;DHT22;62136;-35.664;-63.766;2023-09-19T14:09:13;21.60;55.40
59975;DHT22;62136;-35.664;-63.766;2023-09-19T14:11:42;21.50;57.00
59975;DHT22;62136;-35.664;-63.766;2023-09-19T14:14:12;21.40;53.10
59975;DHT22;62136;-35.664;-63.766;2023-09-19T14:16:40;21.70;47.00
59975;DHT22;62136;-35.664;-63.766;2023-09-19T14:19:08;21.80;41.70
59975;DHT22;62136;-35.664;-63.766;2023-09-19T14:21:36;21.80;43.10
59975;DHT22;62136;-35.664;-63.766;2023-09-19T14:24:04;21.60;42.20
59975;DHT22;62136;-35.664;-63.766;2023-09-19T14:26:40;21.40;43.20
59975;DHT22;62136;-35.664;-63.766;2023-09-19T14:29:07;21.30;40.50
59975;DHT22;62136;-35.664;-63.766;2023-09-19T14:31:39;21.20;42.00
59975;DHT22;62136;-35.664;-63.766;2023-09-19T14:34:07;21.10;41.00
59975;DHT22;62136;-35.664;-63.766;2023-09-19T14:36:37;21.00;36.50
59975;DHT22;62136;-35.664;-63.766;2023-09-19T14:39:05;20.90;39.50
59975;DHT22;62136;-35.664;-63.766;2023-09-19T14:41:32;20.90;39.50
59975;DHT22;62136;-35.664;-63.766;2023-09-19T14:44:03;20.90;36.60
59975;DHT22;62136;-35.664;-63.766;2023-09-19T14:46:31;20.80;35.60
59975;DHT22;62136;-35.664;-63.766;2023-09-19T14:48:58;20.80;35.20
59975;DHT22;62136;-35.664;-63.766;2023-09-19T14:51:28;20.80;35.50
59975;DHT22;62136;-35.664;-63.766;2023-09-19T14:53:56;20.80;36.40
59975;DHT22;62136;-35.664;-63.766;2023-09-19T14:56:24;20.80;36.30
59975;DHT22;62136;-35.664;-63.766;2023-09-19T14:58:52;20.90;35.90
59975;DHT22;62136;-35.664;-63.766;2023-09-19T15:01:19;20.90;36.60
59975;DHT22;62136;-35.664;-63.766;2023-09-19T15:03:46;21.00;37.30
59975;DHT22;62136;-35.664;-63.766;2023-09-19T15:06:16;21.00;37.20
59975;DHT22;62136;-35.664;-63.766;2023-09-19T15:08:46;21.10;37.10
59975;DHT22;62136;-35.664;-63.766;2023-09-19T15:11:17;21.10;37.10
59975;DHT22;62136;-35.664;-63.766;2023-09-19T15:13:46;21.10;36.60
59975;DHT22;62136;-35.664;-63.766;2023-09-19T15:16:14;21.20;37.80
59975;DHT22;62136;-35.664;-63.766;2023-09-19T15:18:43;21.20;38.10
59975;DHT22;62136;-35.664;-63.766;2023-09-19T15:21:13;21.30;39.10
59975;DHT22;62136;-35.664;-63.766;2023-09-19T15:23:42;21.30;38.10
59975;DHT22;62136;-35.664;-63.766;2023-09-19T15:26:14;21.30;37.80
59975;DHT22;62136;-35.664;-63.766;2023-09-19T15:28:46;21.40;38.50
59975;DHT22;62136;-35.664;-63.766;2023-09-19T15:31:14;21.40;37.30
59975;DHT22;62136;-35.664;-63.766;2023-09-19T15:33:42;21.40;37.80
59975;DHT22;62136;-35.664;-63.766;2023-09-19T15:36:16;21.50;37.70
59975;DHT22;62136;-35.664;-63.766;2023-09-19T15:41:25;21.50;38.10
59975;DHT22;62136;-35.664;-63.766;2023-09-19T15:43:54;21.50;37.60
59975;DHT22;62136;-35.664;-63.766;2023-09-19T15:46:22;21.50;36.60
59975;DHT22;62136;-35.664;-63.766;2023-09-19T15:48:50;21.40;35.80
59975;DHT22;62136;-35.664;-63.766;2023-09-19T15:51:18;21.40;36.80
59975;DHT22;62136;-35.664;-63.766;2023-09-19T15:53:48;21.40;36.90
59975;DHT22;62136;-35.664;-63.766;2023-09-19T15:56:16;21.30;35.50
59975;DHT22;62136;-35.664;-63.766;2023-09-19T15:58:48;21.30;35.10
59975;DHT22;62136;-35.664;-63.766;2023-09-19T16:01:15;21.20;34.30
59975;DHT22;62136;-35.664;-63.766;2023-09-19T16:06:15;21.10;33.20
59975;DHT22;62136;-35.664;-63.766;2023-09-19T16:08:45;21.10;32.70
59975;DHT22;62136;-35.664;-63.766;2023-09-19T16:11:17;21.10;32.90
59975;DHT22;62136;-35.664;-63.766;2023-09-19T16:13:48;21.00;32.00
59975;DHT22;62136;-35.664;-63.766;2023-09-19T16:16:16;21.00;32.00
59975;DHT22;62136;-35.664;-63.766;2023-09-19T16:18:47;20.90;30.30